Time;durP1;ratioP1;P1;durP2;ratioP2;P2;SDS_P1;SDS_P2;PMS_P1;PMS_P2;Temp;Humidity;BMP_temperature;BMP_pressure;BME280_temperature;BME280_humidity;BME280_pressure;Samples;Min_cycle;Max_cycle;Signal;HPM_P1;HPM_P2
2020/12/15 00:01:46;;;;;;;3.90;1.08;;;18.30;58.20;;;;;;5066973;28;20701;-61
2020/12/15 00:04:11;;;;;;;4.28;1.30;;;18.30;58.20;;;;;;5067070;28;20171;-61
2020/12/15 00:06:37;;;;;;;3.13;1.45;;;18.20;58.20;;;;;;5067210;28;20236;-61
2020/12/15 00:09:02;;;;;;;2.22;1.05;;;18.30;58.30;;;;;;5066948;28;20178;-62
2020/12/15 00:11:28;;;;;;;1.63;1.20;;;18.20;58.20;;;;;;5067108;28;20175;-61
2020/12/15 00:13:54;;;;;;;1.77;1.20;;;18.20;58.20;;;;;;5066786;28;21042;-61
2020/12/15 00:16:19;;;;;;;1.30;1.13;;;18.20;58.20;;;;;;5066514;28;21041;-61
2020/12/15 00:18:45;;;;;;;1.65;1.50;;;18.20;58.20;;;;;;5066855;28;20568;-61
2020/12/15 00:21:17;;;;;;;1.98;1.20;;;18.20;58.20;;;;;;5066931;28;20277;-62
2020/12/15 00:23:43;;;;;;;1.33;1.23;;;18.20;58.20;;;;;;5033014;28;20170;-62
2020/12/15 00:26:08;;;;;;;1.75;1.42;;;18.10;58.10;;;;;;5066712;28;20206;-61
2020/12/15 00:28:34;;;;;;;2.55;1.35;;;18.20;58.20;;;;;;5066747;28;20182;-62
2020/12/15 00:30:59;;;;;;;2.20;1.17;;;18.10;58.80;;;;;;5066601;28;20191;-61
2020/12/15 00:33:25;;;;;;;1.27;1.17;;;18.20;58.20;;;;;;5066314;28;20171;-61
2020/12/15 00:35:50;;;;;;;1.33;1.20;;;18.10;58.10;;;;;;5066372;28;20273;-62
2020/12/15 00:38:16;;;;;;;2.78;1.60;;;18.10;58.10;;;;;;5066190;28;20267;-62
2020/12/15 00:40:41;;;;;;;1.98;1.40;;;18.10;58.10;;;;;;5066205;28;20205;-62
2020/12/15 00:43:07;;;;;;;1.35;1.25;;;18.10;58.10;;;;;;5066417;28;20177;-62
2020/12/15 00:45:32;;;;;;;1.30;1.20;;;18.00;58.00;;;;;;5066112;28;20174;-61
2020/12/15 00:47:58;;;;;;;1.50;1.40;;;18.00;58.00;;;;;;5066136;28;20628;-62
2020/12/15 00:50:23;;;;;;;1.73;1.63;;;18.10;58.10;;;;;;5066113;28;20983;-62
2020/12/15 00:52:49;;;;;;;1.63;1.20;;;18.00;58.00;;;;;;5066032;28;20651;-61
2020/12/15 00:55:15;;;;;;;1.98;1.30;;;18.00;58.10;;;;;;5065985;28;20308;-61
2020/12/15 00:57:40;;;;;;;1.40;1.20;;;18.00;58.00;;;;;;5066225;28;20206;-62
2020/12/15 01:00:08;;;;;;;1.83;1.50;;;18.00;58.10;;;;;;5047484;28;20277;-61
2020/12/15 01:02:33;;;;;;;1.40;1.30;;;18.00;58.00;;;;;;5065878;28;20177;-61
2020/12/15 01:04:59;;;;;;;1.42;1.13;;;18.00;58.00;;;;;;5065760;28;20174;-61
2020/12/15 01:07:24;;;;;;;1.45;1.20;;;17.90;58.00;;;;;;5065513;28;20174;-61
2020/12/15 01:09:50;;;;;;;1.40;1.30;;;17.90;58.00;;;;;;5065710;28;20174;-61
2020/12/15 01:12:16;;;;;;;2.95;1.67;;;17.90;58.00;;;;;;5065566;28;20186;-62
2020/12/15 01:14:41;;;;;;;2.40;1.40;;;17.90;58.00;;;;;;5065766;28;20170;-61
2020/12/15 01:17:07;;;;;;;2.08;1.50;;;17.90;58.00;;;;;;5047677;28;20294;-62
2020/12/15 01:19:33;;;;;;;1.30;1.13;;;17.90;58.00;;;;;;5065388;28;20268;-62
2020/12/15 01:21:59;;;;;;;1.70;1.60;;;17.90;58.00;;;;;;5065531;28;20250;-62
2020/12/15 01:24:25;;;;;;;1.30;1.20;;;17.90;58.10;;;;;;5065427;28;20167;-62
2020/12/15 01:26:51;;;;;;;1.55;1.45;;;17.80;58.00;;;;;;5065226;28;20174;-61
2020/12/15 01:29:17;;;;;;;1.27;1.17;;;17.90;58.00;;;;;;5065021;28;20527;-61
2020/12/15 01:31:42;;;;;;;2.03;1.40;;;17.90;58.00;;;;;;5065365;28;20174;-62
2020/12/15 01:34:08;;;;;;;1.92;1.55;;;17.80;58.00;;;;;;5065325;28;20322;-61
2020/12/15 01:36:34;;;;;;;1.73;1.60;;;17.80;58.00;;;;;;5064739;28;20206;-61
2020/12/15 01:38:59;;;;;;;1.50;1.40;;;17.80;58.00;;;;;;5065518;28;20261;-62
2020/12/15 01:41:25;;;;;;;1.38;1.20;;;17.80;58.00;;;;;;5065125;28;20174;-61
2020/12/15 01:43:56;;;;;;;1.45;1.35;;;17.80;58.00;;;;;;5065294;28;20638;-62
2020/12/15 01:46:22;;;;;;;1.40;1.30;;;17.80;58.00;;;;;;5065174;28;20170;-61
2020/12/15 01:48:47;;;;;;;1.33;1.23;;;17.80;58.00;;;;;;5030580;28;20689;-61
2020/12/15 01:51:13;;;;;;;1.45;1.30;;;17.80;58.00;;;;;;5030492;28;20655;-61
2020/12/15 01:53:39;;;;;;;1.45;1.27;;;17.70;58.00;;;;;;5064535;28;20196;-62
2020/12/15 01:56:04;;;;;;;1.42;1.33;;;17.70;58.00;;;;;;5047069;28;20182;-62
2020/12/15 01:58:30;;;;;;;1.35;1.20;;;17.80;58.00;;;;;;5047169;28;20221;-61
2020/12/15 02:00:55;;;;;;;2.55;1.65;;;17.70;58.00;;;;;;5047382;28;20185;-61
2020/12/15 02:03:21;;;;;;;1.25;1.15;;;17.70;58.00;;;;;;5064675;28;20173;-61
2020/12/15 02:05:46;;;;;;;1.58;1.48;;;17.70;58.00;;;;;;5064996;28;20175;-61
2020/12/15 02:08:12;;;;;;;1.60;1.50;;;17.70;58.00;;;;;;5064826;28;20205;-61
2020/12/15 02:10:38;;;;;;;1.30;1.20;;;17.70;58.00;;;;;;5064597;28;20178;-62
2020/12/15 02:13:03;;;;;;;1.60;1.50;;;17.70;58.00;;;;;;5030503;28;20236;-61
2020/12/15 02:15:29;;;;;;;3.30;1.25;;;17.70;58.00;;;;;;5030130;28;20257;-62
2020/12/15 02:17:54;;;;;;;1.77;1.60;;;17.70;58.00;;;;;;5064470;28;20243;-62
2020/12/15 02:20:20;;;;;;;2.00;1.55;;;17.70;58.00;;;;;;5064579;28;20167;-63
2020/12/15 02:22:45;;;;;;;1.90;1.30;;;17.70;57.90;;;;;;5064612;28;20936;-62
2020/12/15 02:25:11;;;;;;;1.20;1.10;;;17.60;57.90;;;;;;5064531;28;20968;-61
2020/12/15 02:27:36;;;;;;;1.52;1.30;;;17.60;57.90;;;;;;5064296;28;20418;-61
2020/12/15 02:30:07;;;;;;;1.73;1.55;;;17.60;57.90;;;;;;5046323;28;20194;-61
2020/12/15 02:32:33;;;;;;;1.85;1.50;;;17.60;57.90;;;;;;5064600;28;20178;-61
2020/12/15 02:34:59;;;;;;;1.40;1.30;;;17.60;57.90;;;;;;5064414;28;20175;-61
2020/12/15 02:37:24;;;;;;;1.90;1.77;;;17.50;57.90;;;;;;5064381;28;20217;-62
2020/12/15 02:39:50;;;;;;;1.50;1.40;;;17.60;57.90;;;;;;5064320;28;20930;-62
2020/12/15 02:42:16;;;;;;;1.90;1.80;;;17.60;57.90;;;;;;5063917;28;20166;-62
2020/12/15 02:44:41;;;;;;;1.88;1.52;;;17.60;57.90;;;;;;5064282;28;20342;-61
2020/12/15 02:47:07;;;;;;;1.42;1.33;;;17.60;57.90;;;;;;5063382;28;20662;-61
2020/12/15 02:49:32;;;;;;;2.00;1.50;;;17.60;57.90;;;;;;5063997;28;20244;-61
2020/12/15 02:51:59;;;;;;;1.55;1.45;;;17.60;57.90;;;;;;5046469;28;20209;-61
2020/12/15 02:54:24;;;;;;;2.35;1.60;;;17.60;57.90;;;;;;5063725;28;20185;-61
2020/12/15 02:56:50;;;;;;;1.40;1.30;;;17.60;57.90;;;;;;5063743;28;20198;-61
2020/12/15 02:59:15;;;;;;;1.48;1.38;;;17.50;57.80;;;;;;5063880;28;20186;-61
2020/12/15 03:01:41;;;;;;;1.52;1.35;;;17.50;57.90;;;;;;5063872;28;20228;-61
2020/12/15 03:04:08;;;;;;;1.60;1.50;;;17.50;57.80;;;;;;5064001;28;20232;-61
2020/12/15 03:06:34;;;;;;;1.45;1.30;;;17.50;57.80;;;;;;5063624;28;20180;-61
2020/12/15 03:08:59;;;;;;;1.10;1.10;;;17.50;57.80;;;;;;5063868;28;20327;-61
2020/12/15 03:11:25;;;;;;;1.52;1.42;;;17.50;57.80;;;;;;5063546;28;20206;-61
2020/12/15 03:13:50;;;;;;;1.25;1.20;;;17.50;57.80;;;;;;5063873;28;20640;-62
2020/12/15 03:16:16;;;;;;;1.60;1.50;;;17.50;57.90;;;;;;5063783;28;20180;-61
2020/12/15 03:18:41;;;;;;;1.52;1.38;;;17.40;57.80;;;;;;5063884;28;20210;-62
2020/12/15 03:21:08;;;;;;;1.30;1.20;;;17.50;57.80;;;;;;5063535;28;20182;-62
2020/12/15 03:23:34;;;;;;;1.60;1.50;;;17.50;57.80;;;;;;5063137;28;20178;-61
2020/12/15 03:25:59;;;;;;;1.55;1.40;;;17.40;57.80;;;;;;5063539;28;20274;-61
2020/12/15 03:28:25;;;;;;;1.58;1.48;;;17.50;57.80;;;;;;5063346;28;20250;-61
2020/12/15 03:30:51;;;;;;;1.60;1.50;;;17.50;57.80;;;;;;5063753;28;20201;-61
2020/12/15 03:33:19;;;;;;;1.80;1.63;;;17.50;57.80;;;;;;5063804;28;20175;-61
2020/12/15 03:35:45;;;;;;;1.45;1.20;;;17.50;57.80;;;;;;5063667;28;20181;-60
2020/12/15 03:38:11;;;;;;;1.63;1.52;;;17.40;57.80;;;;;;5063520;28;20211;-61
2020/12/15 03:40:36;;;;;;;1.65;1.55;;;17.40;57.80;;;;;;5063516;28;20194;-62
2020/12/15 03:43:02;;;;;;;1.30;1.20;;;17.40;57.80;;;;;;5063388;28;20186;-62
2020/12/15 03:45:29;;;;;;;1.40;1.30;;;17.40;57.80;;;;;;5063607;28;20328;-62
2020/12/15 03:47:55;;;;;;;1.55;1.42;;;17.40;57.80;;;;;;5063524;28;20167;-61
2020/12/15 03:50:20;;;;;;;1.20;1.10;;;17.40;57.80;;;;;;5063227;28;20534;-61
2020/12/15 03:52:46;;;;;;;1.50;1.40;;;17.40;57.80;;;;;;5063308;28;20539;-60
2020/12/15 03:55:11;;;;;;;1.58;1.45;;;17.40;57.80;;;;;;5063349;28;20178;-61
2020/12/15 03:57:37;;;;;;;1.27;1.17;;;17.30;57.80;;;;;;5062995;28;20301;-61
2020/12/15 04:00:04;;;;;;;1.42;1.33;;;17.40;57.80;;;;;;5066824;28;20174;-61
2020/12/15 04:02:30;;;;;;;1.27;1.17;;;17.40;57.80;;;;;;5066798;28;20224;-61
2020/12/15 04:04:55;;;;;;;1.30;1.20;;;17.40;57.80;;;;;;5067142;28;20170;-61
2020/12/15 04:07:21;;;;;;;1.30;1.20;;;17.30;57.70;;;;;;5067165;28;20174;-61
2020/12/15 04:09:47;;;;;;;1.58;1.48;;;17.40;57.80;;;;;;5066972;28;20261;-61
2020/12/15 04:12:12;;;;;;;1.70;1.33;;;17.40;57.80;;;;;;5067118;28;20171;-61
2020/12/15 04:14:39;;;;;;;1.50;1.40;;;17.40;57.80;;;;;;5066969;28;20713;-62
2020/12/15 04:17:05;;;;;;;1.60;1.50;;;17.30;57.70;;;;;;5066709;28;20237;-61
2020/12/15 04:19:30;;;;;;;1.30;1.20;;;17.30;57.70;;;;;;5066791;28;20201;-62
2020/12/15 04:21:56;;;;;;;1.30;1.20;;;17.40;57.80;;;;;;5066703;28;20226;-62
2020/12/15 04:24:21;;;;;;;1.55;1.45;;;17.30;57.80;;;;;;5066557;28;20184;-62
2020/12/15 04:26:47;;;;;;;1.60;1.50;;;17.30;57.70;;;;;;5066964;28;20178;-61
2020/12/15 04:29:13;;;;;;;1.00;1.00;;;17.30;57.80;;;;;;5066547;28;20167;-61
2020/12/15 04:31:38;;;;;;;1.40;1.27;;;17.30;57.80;;;;;;5066836;28;20190;-60
2020/12/15 04:34:04;;;;;;;1.42;1.33;;;17.30;57.70;;;;;;5066683;28;20190;-61
2020/12/15 04:36:30;;;;;;;1.52;1.35;;;17.20;57.70;;;;;;5066657;28;20191;-61
2020/12/15 04:38:56;;;;;;;1.27;1.17;;;17.30;57.80;;;;;;5066603;28;20185;-62
2020/12/15 04:41:21;;;;;;;1.30;1.20;;;17.30;57.70;;;;;;5066322;28;20233;-62
2020/12/15 04:43:47;;;;;;;1.40;1.30;;;17.30;57.80;;;;;;5048431;28;20178;-63
2020/12/15 04:46:12;;;;;;;2.08;1.33;;;17.30;57.70;;;;;;5031524;28;20178;-62
2020/12/15 04:48:43;;;;;;;1.40;1.30;;;17.30;57.70;;;;;;5031889;28;20174;-61
2020/12/15 04:51:09;;;;;;;1.35;1.25;;;17.30;57.80;;;;;;5048366;28;20170;-61
2020/12/15 04:53:35;;;;;;;1.95;1.38;;;17.20;57.70;;;;;;5066261;28;20182;-61
2020/12/15 04:56:01;;;;;;;1.40;1.30;;;17.30;57.80;;;;;;5066466;28;20178;-60
2020/12/15 04:58:26;;;;;;;1.50;1.40;;;17.20;57.70;;;;;;5031907;28;20209;-63
2020/12/15 05:00:52;;;;;;;1.40;1.30;;;17.20;58.30;;;;;;5031636;28;20224;-60
2020/12/15 05:03:21;;;;;;;1.35;1.25;;;17.20;57.70;;;;;;5065696;28;20171;-60
2020/12/15 05:05:51;;;;;;;1.33;1.23;;;17.20;57.70;;;;;;5065940;28;20977;-60
2020/12/15 05:08:17;;;;;;;1.30;1.20;;;17.20;57.70;;;;;;5066210;28;20171;-60
2020/12/15 05:10:42;;;;;;;1.00;1.00;;;17.20;57.70;;;;;;5065168;28;20210;-61
2020/12/15 05:13:08;;;;;;;1.70;1.40;;;17.20;57.70;;;;;;5065643;28;20685;-61
2020/12/15 05:15:34;;;;;;;1.30;1.20;;;17.20;57.70;;;;;;5065934;28;20579;-62
2020/12/15 05:18:03;;;;;;;1.50;1.40;;;17.20;57.70;;;;;;5065888;28;20209;-62
2020/12/15 05:20:30;;;;;;;1.20;1.10;;;17.20;57.70;;;;;;5065773;28;20216;-63
2020/12/15 05:22:56;;;;;;;1.60;1.50;;;17.20;57.70;;;;;;5065636;28;20166;-62
2020/12/15 05:25:32;;;;;;;1.63;1.40;;;17.20;57.70;;;;;;5048001;28;20197;-60
2020/12/15 05:27:59;;;;;;;1.60;1.50;;;17.20;57.70;;;;;;5065590;28;20203;-59
2020/12/15 05:30:25;;;;;;;1.20;1.10;;;17.10;57.70;;;;;;5064894;28;20178;-60
2020/12/15 05:32:55;;;;;;;1.20;1.20;;;17.10;57.70;;;;;;5065497;28;20185;-60
2020/12/15 05:35:28;;;;;;;1.50;1.40;;;17.20;57.70;;;;;;5065128;28;20537;-60
2020/12/15 05:37:58;;;;;;;2.13;1.48;;;17.20;57.80;;;;;;5047584;28;20235;-61
2020/12/15 05:40:24;;;;;;;2.05;1.25;;;17.10;57.70;;;;;;5065343;28;20166;-62
2020/12/15 05:42:56;;;;;;;1.30;1.20;;;17.10;57.70;;;;;;5065102;28;20170;-62
2020/12/15 05:45:22;;;;;;;1.17;1.10;;;17.10;57.70;;;;;;5065327;28;20170;-61
2020/12/15 05:47:48;;;;;;;1.80;1.60;;;17.20;57.70;;;;;;5065309;28;20186;-61
2020/12/15 05:50:24;;;;;;;1.77;1.50;;;17.10;57.70;;;;;;5065021;28;20692;-61
2020/12/15 05:52:56;;;;;;;1.45;1.35;;;17.10;57.70;;;;;;5064759;28;20639;-61
2020/12/15 05:55:22;;;;;;;1.55;1.45;;;17.10;57.70;;;;;;5064778;28;20639;-60
2020/12/15 05:57:47;;;;;;;1.20;1.10;;;17.10;57.70;;;;;;5064746;28;20206;-61
2020/12/15 06:00:13;;;;;;;1.63;1.50;;;17.10;57.70;;;;;;5046818;28;20175;-61
2020/12/15 06:02:40;;;;;;;1.25;1.10;;;17.10;57.70;;;;;;5064892;28;20227;-60
2020/12/15 06:05:06;;;;;;;1.30;1.05;;;17.10;57.70;;;;;;5064851;28;20182;-60
2020/12/15 06:07:33;;;;;;;1.27;1.17;;;17.10;57.70;;;;;;5064697;28;20178;-61
2020/12/15 06:09:58;;;;;;;1.60;1.50;;;17.20;57.70;;;;;;5047026;28;20265;-61
2020/12/15 06:12:24;;;;;;;1.67;1.30;;;17.20;57.70;;;;;;5065176;28;20251;-61
2020/12/15 06:14:50;;;;;;;1.52;1.20;;;17.20;57.70;;;;;;5064460;28;20174;-61
2020/12/15 06:17:20;;;;;;;1.48;1.20;;;17.30;57.70;;;;;;5064265;28;20210;-61
2020/12/15 06:19:49;;;;;;;1.40;1.30;;;17.30;57.70;;;;;;5047223;28;20175;-61
2020/12/15 06:22:15;;;;;;;1.52;1.42;;;17.20;57.70;;;;;;5046682;28;20946;-61
2020/12/15 06:24:40;;;;;;;1.20;1.10;;;17.20;57.70;;;;;;5046541;28;20251;-61
2020/12/15 06:27:08;;;;;;;1.30;1.20;;;17.20;57.70;;;;;;5064268;28;20178;-61
2020/12/15 06:29:38;;;;;;;1.60;1.50;;;17.20;57.70;;;;;;5029904;28;21019;-60
2020/12/15 06:32:08;;;;;;;1.48;1.38;;;17.20;57.70;;;;;;5064225;28;20179;-61
2020/12/15 06:34:34;;;;;;;1.58;1.35;;;17.20;57.70;;;;;;5064238;28;20196;-61
2020/12/15 06:37:00;;;;;;;1.20;1.20;;;17.20;57.70;;;;;;5064302;28;20275;-61
2020/12/15 06:39:27;;;;;;;2.25;1.30;;;17.10;57.70;;;;;;5064187;28;20628;-61
2020/12/15 06:42:03;;;;;;;1.50;1.38;;;17.20;57.80;;;;;;5064163;28;20173;-62
2020/12/15 06:44:35;;;;;;;1.98;1.30;;;17.10;57.70;;;;;;5064450;28;20178;-62
2020/12/15 06:47:03;;;;;;;1.60;1.50;;;17.10;57.70;;;;;;5064210;28;20261;-62
2020/12/15 06:49:37;;;;;;;1.38;1.30;;;17.10;57.80;;;;;;5064172;28;20170;-61
2020/12/15 06:52:06;;;;;;;1.40;1.30;;;17.10;57.80;;;;;;5063899;28;20631;-61
2020/12/15 06:54:34;;;;;;;1.05;1.05;;;17.10;57.80;;;;;;5063860;28;20175;-62
2020/12/15 06:57:08;;;;;;;1.08;1.08;;;17.10;57.80;;;;;;5063607;28;20210;-62
2020/12/15 06:59:38;;;;;;;1.38;1.27;;;17.10;57.80;;;;;;5064158;28;20173;-61
2020/12/15 07:02:12;;;;;;;1.52;1.40;;;17.10;57.80;;;;;;5064273;28;20182;-61
2020/12/15 07:04:45;;;;;;;1.55;1.45;;;17.10;57.80;;;;;;5064273;28;20177;-61
2020/12/15 07:07:11;;;;;;;1.42;1.33;;;17.10;57.80;;;;;;5063677;28;20186;-60
2020/12/15 07:09:37;;;;;;;1.45;1.30;;;17.10;57.80;;;;;;5064241;28;20190;-60
2020/12/15 07:12:09;;;;;;;1.40;1.30;;;17.10;57.70;;;;;;5064072;28;20177;-61
2020/12/15 07:14:34;;;;;;;1.50;1.40;;;17.20;57.70;;;;;;5046088;28;20175;-61
2020/12/15 07:17:00;;;;;;;1.40;1.30;;;17.10;57.70;;;;;;5063804;28;20202;-61
2020/12/15 07:19:25;;;;;;;1.45;1.35;;;17.20;57.70;;;;;;5029232;28;20186;-62
2020/12/15 07:21:51;;;;;;;1.70;1.30;;;17.20;57.70;;;;;;5045823;28;21017;-62
2020/12/15 07:24:16;;;;;;;1.30;1.20;;;17.10;57.60;;;;;;5063750;28;20995;-62
2020/12/15 07:26:42;;;;;;;1.50;1.40;;;17.20;57.70;;;;;;5063776;28;20220;-61
2020/12/15 07:29:08;;;;;;;1.30;1.20;;;17.20;57.70;;;;;;5045645;28;20254;-61
2020/12/15 07:31:33;;;;;;;1.50;1.40;;;17.10;57.70;;;;;;5063817;28;20198;-61
2020/12/15 07:34:18;;;;;;;1.35;1.25;;;17.10;57.70;;;;;;5065513;28;20270;-61
2020/12/15 07:36:48;;;;;;;1.30;1.20;;;17.10;57.70;;;;;;5067445;28;20715;-61
2020/12/15 07:39:14;;;;;;;1.17;1.13;;;17.20;57.80;;;;;;5049768;28;20179;-61
2020/12/15 07:41:39;;;;;;;1.40;1.30;;;17.10;57.70;;;;;;5067487;28;20648;-62
2020/12/15 07:44:18;;;;;;;1.88;1.77;;;17.20;57.70;;;;;;5067408;28;20182;-62
2020/12/15 07:46:47;;;;;;;1.35;1.30;;;17.20;57.70;;;;;;5067654;28;20178;-61
2020/12/15 07:49:13;;;;;;;1.50;1.40;;;17.20;57.70;;;;;;5067147;28;20178;-61
2020/12/15 07:51:43;;;;;;;1.40;1.30;;;17.20;57.70;;;;;;5067414;28;20628;-61
2020/12/15 07:54:09;;;;;;;1.50;1.40;;;17.20;57.70;;;;;;5067507;28;20166;-61
2020/12/15 07:56:34;;;;;;;1.60;1.50;;;17.10;57.60;;;;;;5067306;28;20925;-61
2020/12/15 07:59:00;;;;;;;1.50;1.40;;;17.20;57.70;;;;;;5066957;28;20171;-61
2020/12/15 08:01:29;;;;;;;1.30;1.20;;;17.20;57.70;;;;;;5066999;28;20972;-61
2020/12/15 08:04:05;;;;;;;1.50;1.40;;;17.10;57.70;;;;;;5067188;28;20620;-61
2020/12/15 08:06:36;;;;;;;1.40;1.30;;;17.10;57.70;;;;;;5066888;28;20232;-61
2020/12/15 08:09:03;;;;;;;2.28;1.70;;;17.20;57.70;;;;;;5066798;28;20171;-60
2020/12/15 08:11:29;;;;;;;1.27;1.17;;;17.20;57.70;;;;;;5066688;28;20179;-61
2020/12/15 08:13:55;;;;;;;1.38;1.27;;;17.30;57.70;;;;;;5066944;28;20671;-61
2020/12/15 08:16:20;;;;;;;1.30;1.20;;;17.30;57.60;;;;;;5066752;28;20210;-61
2020/12/15 08:18:46;;;;;;;1.23;1.15;;;17.20;57.60;;;;;;5048832;28;20579;-62
2020/12/15 08:21:14;;;;;;;1.40;1.30;;;17.30;57.60;;;;;;5032243;28;20175;-61
2020/12/15 08:23:46;;;;;;;1.50;1.40;;;17.20;57.60;;;;;;5066395;28;20616;-61
2020/12/15 08:26:13;;;;;;;1.42;1.33;;;17.20;57.60;;;;;;5048922;28;20259;-61
2020/12/15 08:28:38;;;;;;;1.60;1.50;;;17.20;57.70;;;;;;5066267;28;20297;-65
2020/12/15 08:31:08;;;;;;;1.42;1.33;;;17.20;57.70;;;;;;5032300;28;20261;-65
2020/12/15 08:33:34;;;;;;;2.20;1.30;;;17.20;57.70;;;;;;5066185;28;20187;-65
2020/12/15 08:35:59;;;;;;;1.98;1.60;;;17.20;57.70;;;;;;5066380;28;20239;-66
2020/12/15 08:38:26;;;;;;;1.13;1.13;;;17.30;57.70;;;;;;5066288;28;20440;-64
2020/12/15 08:40:56;;;;;;;1.50;1.40;;;17.30;57.80;;;;;;5066159;28;20179;-65
2020/12/15 08:43:22;;;;;;;2.80;1.50;;;17.30;57.70;;;;;;5048767;28;20175;-65
2020/12/15 08:45:48;;;;;;;1.98;1.60;;;17.40;57.80;;;;;;5064914;28;20170;-67
2020/12/15 08:48:17;;;;;;;1.50;1.40;;;17.40;57.60;;;;;;5066307;28;20342;-67
2020/12/15 08:50:43;;;;;;;1.42;1.33;;;17.40;57.60;;;;;;5066177;28;20178;-65
2020/12/15 08:53:09;;;;;;;2.40;1.40;;;17.50;57.50;;;;;;5066000;28;20182;-64
2020/12/15 08:55:36;;;;;;;2.28;1.50;;;17.50;57.40;;;;;;5066138;28;20170;-65
2020/12/15 08:58:02;;;;;;;1.73;1.55;;;17.50;57.40;;;;;;5066178;28;20248;-66
2020/12/15 09:00:33;;;;;;;1.65;1.55;;;17.40;57.30;;;;;;5066108;28;20261;-65
2020/12/15 09:03:15;;;;;;;1.40;1.23;;;17.40;57.30;;;;;;5066348;28;20213;-65
2020/12/15 09:05:47;;;;;;;2.10;1.25;;;17.40;57.40;;;;;;5065824;28;20209;-66
2020/12/15 09:08:13;;;;;;;2.00;1.45;;;17.40;57.40;;;;;;5065887;28;20251;-67
2020/12/15 09:10:38;;;;;;;1.40;1.30;;;17.40;57.50;;;;;;5065862;28;20210;-63
2020/12/15 09:13:07;;;;;;;1.50;1.40;;;17.40;57.60;;;;;;5065519;28;20921;-63
2020/12/15 09:15:32;;;;;;;1.40;1.30;;;17.40;57.60;;;;;;5065756;28;20167;-63
2020/12/15 09:17:58;;;;;;;2.33;1.95;;;17.40;57.60;;;;;;5065407;28;20585;-64
2020/12/15 09:20:27;;;;;;;2.75;1.17;;;17.40;57.80;;;;;;5065655;28;20174;-62
2020/12/15 09:22:52;;;;;;;1.23;1.13;;;17.30;58.10;;;;;;5065599;28;20278;-63
2020/12/15 09:25:18;;;;;;;2.47;1.80;;;17.40;58.10;;;;;;5065339;28;20321;-63
2020/12/15 09:27:45;;;;;;;3.58;1.95;;;17.40;58.30;;;;;;5065384;28;20171;-64
2020/12/15 09:30:12;;;;;;;2.30;1.40;;;17.30;58.80;;;;;;5065319;28;20171;-63
2020/12/15 09:32:38;;;;;;;2.97;1.67;;;17.40;58.80;;;;;;5065038;28;20166;-63
2020/12/15 09:35:04;;;;;;;3.05;1.70;;;17.40;58.80;;;;;;5047722;28;20542;-64
2020/12/15 09:37:29;;;;;;;1.77;1.50;;;17.40;58.80;;;;;;5065162;28;20706;-64
2020/12/15 09:39:56;;;;;;;3.20;1.60;;;17.50;58.70;;;;;;5065101;28;20182;-62
2020/12/15 09:42:24;;;;;;;3.60;1.60;;;17.50;58.60;;;;;;5064855;28;20897;-64
2020/12/15 09:44:50;;;;;;;1.85;1.40;;;17.50;58.50;;;;;;5064947;28;20175;-64
2020/12/15 09:47:16;;;;;;;1.95;1.67;;;17.50;58.40;;;;;;5046638;28;20205;-64
2020/12/15 09:49:41;;;;;;;1.75;1.48;;;17.60;58.40;;;;;;5065030;28;20264;-65
2020/12/15 09:52:07;;;;;;;2.03;1.67;;;17.60;58.50;;;;;;5064731;28;20702;-63
2020/12/15 09:54:32;;;;;;;3.17;1.58;;;17.60;58.50;;;;;;5064972;28;20567;-62
2020/12/15 09:56:58;;;;;;;1.63;1.52;;;17.60;58.60;;;;;;5064522;28;20195;-64
2020/12/15 09:59:23;;;;;;;2.58;1.63;;;17.50;58.70;;;;;;5064370;28;20213;-64
2020/12/15 10:01:49;;;;;;;3.53;1.33;;;17.50;58.70;;;;;;5064639;28;20179;-63
2020/12/15 10:04:14;;;;;;;1.75;1.33;;;17.60;58.70;;;;;;5064603;28;20177;-63
2020/12/15 10:06:40;;;;;;;3.25;1.50;;;17.50;58.70;;;;;;5064553;28;20659;-63
2020/12/15 10:09:06;;;;;;;2.45;1.45;;;17.50;58.60;;;;;;5064467;28;20634;-63
2020/12/15 10:11:32;;;;;;;2.83;1.30;;;17.60;58.70;;;;;;5064375;28;20174;-62
2020/12/15 10:13:57;;;;;;;2.55;1.52;;;17.60;58.70;;;;;;5064440;28;20288;-62
2020/12/15 10:16:23;;;;;;;2.20;1.50;;;17.60;58.60;;;;;;5064435;28;20178;-63
2020/12/15 10:18:48;;;;;;;1.40;1.10;;;17.60;58.60;;;;;;5064389;28;20289;-64
2020/12/15 10:21:18;;;;;;;2.42;1.50;;;17.50;58.90;;;;;;5055422;28;20183;-63
2020/12/15 10:23:44;;;;;;;1.52;1.30;;;17.60;58.70;;;;;;5041207;28;20177;-64
2020/12/15 10:26:10;;;;;;;3.25;1.50;;;17.60;58.70;;;;;;5046295;28;20194;-64
2020/12/15 10:28:36;;;;;;;3.17;1.50;;;17.50;58.70;;;;;;5046821;28;20171;-64
2020/12/15 10:31:02;;;;;;;1.98;1.73;;;17.50;58.60;;;;;;5064099;28;20178;-64
2020/12/15 10:33:29;;;;;;;1.45;1.35;;;17.50;58.70;;;;;;5046238;28;20702;-64
2020/12/15 10:35:55;;;;;;;1.95;1.50;;;17.50;58.70;;;;;;5064239;28;20535;-63
2020/12/15 10:38:21;;;;;;;1.77;1.65;;;17.40;58.60;;;;;;5051481;28;20219;-62
2020/12/15 10:40:47;;;;;;;1.45;1.30;;;17.40;58.60;;;;;;5026497;28;20175;-63
2020/12/15 10:43:13;;;;;;;1.63;1.30;;;17.40;58.70;;;;;;5043927;28;20194;-63
2020/12/15 10:45:39;;;;;;;1.70;1.30;;;17.40;58.60;;;;;;5043903;28;20171;-62
2020/12/15 10:48:04;;;;;;;1.58;1.30;;;17.40;58.60;;;;;;5044049;28;20205;-62
2020/12/15 10:50:30;;;;;;;1.77;1.67;;;17.40;58.70;;;;;;5044145;28;20183;-64
2020/12/15 10:52:56;;;;;;;1.85;1.42;;;17.40;58.60;;;;;;5044039;28;20179;-62
2020/12/15 10:55:22;;;;;;;1.95;1.60;;;17.30;58.60;;;;;;5056017;28;20175;-63
2020/12/15 10:57:48;;;;;;;1.48;1.38;;;17.30;58.50;;;;;;5064135;28;20217;-63
2020/12/15 11:00:13;;;;;;;2.20;1.38;;;17.30;58.60;;;;;;5064096;28;20190;-64
2020/12/15 11:02:39;;;;;;;1.70;1.60;;;17.30;58.60;;;;;;5046241;28;20257;-62
2020/12/15 11:05:04;;;;;;;2.10;1.42;;;17.40;58.50;;;;;;5064268;28;20615;-63
2020/12/15 11:07:30;;;;;;;1.80;1.70;;;17.40;58.50;;;;;;5064133;28;20524;-62
2020/12/15 11:09:55;;;;;;;1.33;1.23;;;17.40;58.30;;;;;;5067650;28;20186;-63
2020/12/15 11:12:21;;;;;;;1.50;1.40;;;17.50;58.30;;;;;;5068092;28;20650;-64
2020/12/15 11:14:46;;;;;;;1.63;1.35;;;17.40;58.20;;;;;;5067819;28;20181;-64
2020/12/15 11:17:12;;;;;;;2.17;1.73;;;17.40;58.30;;;;;;5068115;28;20673;-63
2020/12/15 11:19:38;;;;;;;1.60;1.40;;;17.50;58.30;;;;;;5068219;28;20193;-63
2020/12/15 11:22:03;;;;;;;1.50;1.40;;;17.40;58.30;;;;;;5067910;28;20231;-64
2020/12/15 11:24:29;;;;;;;1.30;1.20;;;17.40;58.90;;;;;;5067787;28;20173;-64
2020/12/15 11:26:54;;;;;;;2.03;1.58;;;17.40;58.40;;;;;;5067597;28;20332;-64
2020/12/15 11:29:20;;;;;;;2.28;1.50;;;17.40;58.40;;;;;;5038940;28;20880;-64
2020/12/15 11:31:52;;;;;;;1.30;1.20;;;17.30;58.30;;;;;;5047618;28;20175;-62
2020/12/15 11:34:19;;;;;;;3.05;1.70;;;17.40;58.30;;;;;;5047350;28;20334;-63
2020/12/15 11:36:44;;;;;;;1.70;1.40;;;17.40;58.20;;;;;;5047380;28;20178;-62
2020/12/15 11:39:10;;;;;;;1.48;1.33;;;17.40;58.10;;;;;;5029808;28;20179;-62
2020/12/15 11:41:36;;;;;;;1.23;1.13;;;17.50;58.20;;;;;;5047460;28;20175;-64
2020/12/15 11:44:02;;;;;;;1.60;1.50;;;17.40;58.10;;;;;;5047551;28;20633;-63
2020/12/15 11:46:28;;;;;;;1.30;1.20;;;17.40;58.10;;;;;;5029928;28;20171;-62
2020/12/15 11:48:53;;;;;;;1.27;1.23;;;17.40;58.20;;;;;;5047622;28;20183;-63
2020/12/15 11:51:19;;;;;;;2.22;2.00;;;17.40;58.20;;;;;;5047306;28;20180;-63
2020/12/15 11:53:45;;;;;;;1.63;1.52;;;17.30;58.80;;;;;;5047331;28;20175;-63
2020/12/15 11:56:10;;;;;;;2.05;1.50;;;17.40;58.30;;;;;;5047093;28;20178;-62
2020/12/15 11:58:36;;;;;;;3.17;1.40;;;17.40;58.30;;;;;;5046854;28;20222;-61
2020/12/15 12:01:01;;;;;;;2.03;1.30;;;17.40;58.30;;;;;;5047146;28;20179;-65
2020/12/15 12:03:27;;;;;;;3.80;1.70;;;17.50;58.40;;;;;;5046562;28;20175;-65
2020/12/15 12:05:52;;;;;;;3.92;1.30;;;17.50;58.20;;;;;;5046916;28;20416;-65
2020/12/15 12:08:18;;;;;;;1.60;1.50;;;17.60;58.10;;;;;;5047117;28;20183;-63
2020/12/15 12:10:44;;;;;;;1.85;1.25;;;17.60;58.20;;;;;;5047062;28;20180;-65
2020/12/15 12:13:09;;;;;;;4.90;1.67;;;17.50;58.30;;;;;;5046949;28;20680;-63
2020/12/15 12:15:35;;;;;;;4.00;1.58;;;17.60;58.60;;;;;;5047012;28;20179;-64
2020/12/15 12:18:00;;;;;;;2.80;1.52;;;17.60;58.80;;;;;;5046425;28;20649;-62
2020/12/15 12:20:29;;;;;;;1.98;1.42;;;17.80;58.50;;;;;;5046461;28;20529;-66
2020/12/15 12:22:55;;;;;;;2.28;1.42;;;18.00;58.10;;;;;;5046680;28;20167;-65
2020/12/15 12:25:20;;;;;;;1.58;1.30;;;18.20;57.70;;;;;;5046250;28;20257;-64
2020/12/15 12:27:46;;;;;;;4.43;1.42;;;18.60;57.20;;;;;;5046000;28;20253;-65
2020/12/15 12:30:12;;;;;;;3.22;1.55;;;18.90;56.90;;;;;;5063896;28;20279;-64
2020/12/15 12:32:38;;;;;;;1.73;1.20;;;19.20;56.40;;;;;;5066689;28;20209;-64
2020/12/15 12:35:04;;;;;;;3.17;1.38;;;19.30;56.00;;;;;;5066789;28;20189;-64
2020/12/15 12:37:30;;;;;;;2.50;1.50;;;19.50;55.60;;;;;;5066409;28;20206;-64
2020/12/15 12:39:55;;;;;;;2.58;1.38;;;19.60;55.50;;;;;;5066506;28;20636;-63
2020/12/15 12:42:21;;;;;;;2.88;1.50;;;19.70;55.20;;;;;;5066231;28;20513;-63
2020/12/15 12:44:46;;;;;;;2.33;1.30;;;19.80;55.10;;;;;;5066293;28;20628;-64